Time;durP1;ratioP1;P1;durP2;ratioP2;P2;SDS_P1;SDS_P2;PMS_P1;PMS_P2;Temp;Humidity;BMP_temperature;BMP_pressure;BME280_temperature;BME280_humidity;BME280_pressure;Samples;Min_cycle;Max_cycle;Signal;HPM_P1;HPM_P2
2023/01/04 00:01:29;;;;;;;6.07;1.92;;;;;;;;;;5021052;28;20025;-61
2023/01/04 00:03:54;;;;;;;4.90;2.00;;;;;;;;;;5017766;28;20456;-60
2023/01/04 00:06:19;;;;;;;7.63;2.70;;;;;;;;;;5011345;28;20036;-60
2023/01/04 00:08:45;;;;;;;6.97;2.23;;;;;;;;;;5030303;28;20037;-61
2023/01/04 00:11:17;;;;;;;5.93;1.90;;;;;;;;;;5011037;28;20026;-60
2023/01/04 00:13:42;;;;;;;6.80;1.92;;;;;;;;;;5018243;28;20044;-60
2023/01/04 00:16:10;;;;;;;5.97;2.00;;;;;;;;;;5017790;28;20029;-61
2023/01/04 00:18:35;;;;;;;5.57;2.20;;;;;;;;;;5018975;28;20025;-60
2023/01/04 00:21:10;;;;;;;5.32;2.13;;;;;;;;;;5011417;28;20029;-60
2023/01/04 00:23:35;;;;;;;5.40;1.90;;;;;;;;;;5023235;28;20104;-61
2023/01/04 00:26:00;;;;;;;6.18;2.10;;;;;;;;;;5028090;28;20105;-60
2023/01/04 00:28:26;;;;;;;6.00;1.90;;;;;;;;;;5019149;28;20087;-60
2023/01/04 00:30:51;;;;;;;4.45;1.80;;;;;;;;;;5017924;28;20105;-59
2023/01/04 00:33:16;;;;;;;6.68;2.10;;;;;;;;;;5021793;28;20037;-60
2023/01/04 00:35:42;;;;;;;5.18;2.00;;;;;;;;;;5029559;28;20037;-64
2023/01/04 00:38:07;;;;;;;6.32;2.20;;;;;;;;;;5024719;28;20080;-61
2023/01/04 00:40:33;;;;;;;6.50;2.20;;;;;;;;;;5030111;28;20029;-60
2023/01/04 00:42:58;;;;;;;6.60;2.50;;;;;;;;;;5029802;28;20097;-61
2023/01/04 00:45:23;;;;;;;6.87;2.10;;;;;;;;;;5010398;28;20022;-60
2023/01/04 00:47:48;;;;;;;6.53;2.23;;;;;;;;;;5010381;28;20014;-61
2023/01/04 00:50:13;;;;;;;7.85;2.35;;;;;;;;;;5011291;28;20431;-60
2023/01/04 00:52:38;;;;;;;7.63;2.40;;;;;;;;;;5024155;28;20057;-60
2023/01/04 00:55:04;;;;;;;6.25;2.33;;;;;;;;;;5012610;28;20041;-60
2023/01/04 00:57:29;;;;;;;7.70;2.30;;;;;;;;;;5014295;28;20504;-60
2023/01/04 00:59:54;;;;;;;7.45;2.28;;;;;;;;;;5017866;28;20457;-60
2023/01/04 01:02:19;;;;;;;5.38;2.17;;;;;;;;;;5012155;28;20041;-60
2023/01/04 01:04:44;;;;;;;7.47;2.33;;;;;;;;;;5021972;28;20026;-62
2023/01/04 01:07:09;;;;;;;5.47;2.25;;;;;;;;;;5021698;28;20018;-61
2023/01/04 01:09:35;;;;;;;7.00;2.30;;;;;;;;;;5024149;28;20030;-60
2023/01/04 01:12:00;;;;;;;6.50;2.50;;;;;;;;;;5017306;28;20109;-59
2023/01/04 01:14:25;;;;;;;5.22;2.30;;;;;;;;;;5010184;28;20068;-60
2023/01/04 01:16:50;;;;;;;5.83;2.40;;;;;;;;;;5019254;28;20067;-59
2023/01/04 01:19:16;;;;;;;6.45;2.10;;;;;;;;;;5012399;28;20112;-59
2023/01/04 01:21:41;;;;;;;5.93;2.10;;;;;;;;;;5022626;28;20021;-59
2023/01/04 01:24:07;;;;;;;6.80;2.40;;;;;;;;;;5025524;28;20017;-60
2023/01/04 01:26:33;;;;;;;5.60;1.98;;;;;;;;;;5031052;28;20035;-59
2023/01/04 01:28:58;;;;;;;6.90;2.25;;;;;;;;;;5023362;28;20026;-59
2023/01/04 01:31:24;;;;;;;6.83;2.17;;;;;;;;;;5019271;28;20385;-59
2023/01/04 01:33:50;;;;;;;7.15;2.10;;;;;;;;;;5015948;28;20100;-59
2023/01/04 01:36:16;;;;;;;6.68;2.50;;;;;;;;;;5029784;28;20108;-60
2023/01/04 01:38:42;;;;;;;5.35;1.90;;;;;;;;;;5032211;28;20100;-60
2023/01/04 01:41:12;;;;;;;5.30;2.17;;;;;;;;;;5027403;28;20560;-60
2023/01/04 01:43:56;;;;;;;6.30;2.13;;;;;;;;;;5015391;28;20040;-60
2023/01/04 01:46:24;;;;;;;6.03;2.28;;;;;;;;;;5012975;28;20014;-60
2023/01/04 01:48:52;;;;;;;5.60;2.17;;;;;;;;;;5018010;28;20026;-60
2023/01/04 01:51:17;;;;;;;9.25;2.17;;;;;;;;;;5024778;28;20523;-60
2023/01/04 01:53:43;;;;;;;5.93;2.25;;;;;;;;;;5017593;28;20026;-60
2023/01/04 01:56:08;;;;;;;5.07;2.10;;;;;;;;;;5017752;28;20055;-59
2023/01/04 01:58:35;;;;;;;7.40;2.15;;;;;;;;;;5021675;28;20029;-60
2023/01/04 02:01:01;;;;;;;5.85;2.05;;;;;;;;;;5012808;28;20025;-60
2023/01/04 02:03:30;;;;;;;6.80;2.08;;;;;;;;;;5021529;28;20037;-60
2023/01/04 02:05:57;;;;;;;6.00;2.05;;;;;;;;;;5029439;28;20052;-60
2023/01/04 02:08:23;;;;;;;6.28;1.88;;;;;;;;;;5021365;28;20029;-60
2023/01/04 02:10:48;;;;;;;5.50;2.20;;;;;;;;;;5017842;28;20036;-60
2023/01/04 02:13:16;;;;;;;5.93;2.10;;;;;;;;;;5027452;28;20053;-61
2023/01/04 02:15:51;;;;;;;5.75;2.25;;;;;;;;;;5025102;28;20071;-61
2023/01/04 02:18:32;;;;;;;6.20;2.30;;;;;;;;;;5027055;28;20030;-60
2023/01/04 02:20:57;;;;;;;5.60;2.03;;;;;;;;;;5024165;28;20028;-60
2023/01/04 02:23:54;;;;;;;5.32;2.03;;;;;;;;;;5029514;28;20021;-61
2023/01/04 02:26:20;;;;;;;7.03;2.20;;;;;;;;;;5013862;28;20088;-60
2023/01/04 02:28:57;;;;;;;5.43;2.10;;;;;;;;;;5031310;28;20021;-60
2023/01/04 02:31:36;;;;;;;5.20;2.22;;;;;;;;;;5027859;28;20484;-61
2023/01/04 02:34:18;;;;;;;7.35;2.92;;;;;;;;;;5025325;28;20679;-60
2023/01/04 02:37:01;;;;;;;7.07;2.50;;;;;;;;;;5023896;28;20040;-61
2023/01/04 02:39:47;;;;;;;8.82;2.60;;;;;;;;;;5016811;28;20033;-60
2023/01/04 02:42:17;;;;;;;5.90;2.30;;;;;;;;;;5026527;28;20036;-60
2023/01/04 02:44:57;;;;;;;7.05;2.50;;;;;;;;;;5022358;28;20014;-60
2023/01/04 02:50:31;;;;;;;7.00;2.50;;;;;;;;;;5022097;28;20028;-60
2023/01/04 02:53:00;;;;;;;6.35;2.35;;;;;;;;;;5016987;28;20025;-61
2023/01/04 02:55:41;;;;;;;6.57;2.72;;;;;;;;;;5018972;28;20512;-60
2023/01/04 02:58:20;;;;;;;6.18;2.30;;;;;;;;;;5019420;28;20033;-60
2023/01/04 03:06:56;;;;;;;8.05;2.45;;;;;;;;;;5012922;28;20037;-61
2023/01/04 03:09:25;;;;;;;7.00;2.05;;;;;;;;;;5013858;28;20026;-61
2023/01/04 03:14:42;;;;;;;6.97;2.30;;;;;;;;;;5021602;28;20064;-61
2023/01/04 03:17:09;;;;;;;5.22;2.10;;;;;;;;;;5010557;28;20026;-61
2023/01/04 03:19:50;;;;;;;6.72;2.10;;;;;;;;;;5022146;28;20037;-58
2023/01/04 03:36:10;;;;;;;5.88;2.53;;;;;;;;;;5025844;28;20067;-60
2023/01/04 03:50:26;;;;;;;7.72;3.25;;;;;;;;;;5025528;28;20424;-60
2023/01/04 03:52:52;;;;;;;6.72;3.30;;;;;;;;;;5025341;28;20403;-61
2023/01/04 03:55:17;;;;;;;8.63;3.42;;;;;;;;;;5014309;28;20044;-61
2023/01/04 03:57:43;;;;;;;8.73;3.97;;;;;;;;;;5022719;28;20033;-60
2023/01/04 04:00:10;;;;;;;12.88;5.18;;;;;;;;;;5027396;28;20812;-61
2023/01/04 04:02:38;;;;;;;9.80;4.35;;;;;;;;;;5022811;28;20443;-60
2023/01/04 04:10:31;;;;;;;10.32;4.80;;;;;;;;;;5012686;28;20056;-60
2023/01/04 04:12:56;;;;;;;10.17;4.63;;;;;;;;;;5011241;28;20054;-60
2023/01/04 04:15:21;;;;;;;10.83;4.33;;;;;;;;;;5014207;28;20025;-60
2023/01/04 04:17:46;;;;;;;11.15;4.78;;;;;;;;;;5017275;28;20072;-61
2023/01/04 04:20:12;;;;;;;9.03;4.77;;;;;;;;;;5019453;28;20130;-61
2023/01/04 04:22:37;;;;;;;10.67;4.90;;;;;;;;;;5012134;28;20065;-59
2023/01/04 04:25:03;;;;;;;11.25;5.00;;;;;;;;;;5013946;28;20021;-60
2023/01/04 04:27:28;;;;;;;10.13;4.70;;;;;;;;;;5022309;28;20025;-60
2023/01/04 04:29:53;;;;;;;10.65;5.80;;;;;;;;;;5023659;28;20543;-60
2023/01/04 04:32:18;;;;;;;13.37;5.93;;;;;;;;;;5013097;28;20037;-60
2023/01/04 04:34:43;;;;;;;14.27;6.63;;;;;;;;;;5020643;28;20500;-60
2023/01/04 04:37:08;;;;;;;14.48;6.00;;;;;;;;;;5021493;28;20033;-60
2023/01/04 04:39:34;;;;;;;11.43;5.70;;;;;;;;;;5026642;28;20056;-60
2023/01/04 04:41:59;;;;;;;12.27;5.37;;;;;;;;;;5029677;28;20032;-60
2023/01/04 04:44:24;;;;;;;11.63;5.17;;;;;;;;;;5028010;28;20103;-60
2023/01/04 04:46:49;;;;;;;11.20;5.37;;;;;;;;;;5029538;28;20025;-60
2023/01/04 04:49:15;;;;;;;10.18;5.30;;;;;;;;;;5012673;28;20014;-61
2023/01/04 04:51:41;;;;;;;11.10;5.43;;;;;;;;;;5014524;28;20030;-60
2023/01/04 04:54:07;;;;;;;10.55;5.22;;;;;;;;;;5006651;28;20017;-60
2023/01/04 04:56:33;;;;;;;11.45;5.13;;;;;;;;;;5023585;28;20013;-61
2023/01/04 04:58:58;;;;;;;11.50;5.40;;;;;;;;;;5024814;28;20104;-60
2023/01/04 05:01:23;;;;;;;12.53;5.43;;;;;;;;;;5027669;28;20475;-60
2023/01/04 05:03:48;;;;;;;10.43;5.13;;;;;;;;;;5024255;28;20388;-61
2023/01/04 05:06:14;;;;;;;12.23;5.43;;;;;;;;;;5018531;28;20041;-60
2023/01/04 05:08:39;;;;;;;11.32;6.32;;;;;;;;;;5021173;28;20655;-60
2023/01/04 05:11:05;;;;;;;12.73;5.60;;;;;;;;;;5014035;28;20045;-62
2023/01/04 05:13:30;;;;;;;11.40;5.60;;;;;;;;;;5013158;28;20103;-61
2023/01/04 05:15:55;;;;;;;11.00;5.20;;;;;;;;;;5017815;28;20025;-61
2023/01/04 05:18:21;;;;;;;13.38;5.78;;;;;;;;;;5019225;28;20029;-60
2023/01/04 05:20:46;;;;;;;12.10;5.53;;;;;;;;;;5028965;28;20516;-61
2023/01/04 05:23:12;;;;;;;11.18;5.32;;;;;;;;;;5018247;28;20029;-61
2023/01/04 05:25:38;;;;;;;8.90;4.65;;;;;;;;;;5024160;28;20030;-61
2023/01/04 05:28:04;;;;;;;9.40;5.10;;;;;;;;;;5012674;28;20022;-60
2023/01/04 05:33:12;;;;;;;10.50;5.30;;;;;;;;;;5014948;28;20316;-60
2023/01/04 05:35:38;;;;;;;11.27;5.50;;;;;;;;;;5022252;28;20022;-61
2023/01/04 05:38:03;;;;;;;11.63;5.43;;;;;;;;;;5027012;28;20477;-61
2023/01/04 05:40:28;;;;;;;11.90;5.63;;;;;;;;;;5014390;28;20013;-61
2023/01/04 05:42:53;;;;;;;12.90;5.60;;;;;;;;;;5029074;28;20472;-61
2023/01/04 05:45:20;;;;;;;12.40;5.90;;;;;;;;;;5022173;28;20026;-61
2023/01/04 05:47:47;;;;;;;13.15;5.35;;;;;;;;;;5019364;28;20053;-60
2023/01/04 05:50:12;;;;;;;11.45;5.53;;;;;;;;;;5023275;28;20534;-60
2023/01/04 05:52:37;;;;;;;11.40;5.30;;;;;;;;;;5017146;28;20057;-60
2023/01/04 05:55:02;;;;;;;11.35;5.70;;;;;;;;;;5010299;28;20036;-60
2023/01/04 05:57:28;;;;;;;12.70;5.90;;;;;;;;;;5022452;28;20485;-60
2023/01/04 05:59:53;;;;;;;12.07;5.63;;;;;;;;;;5017990;28;20022;-60
2023/01/04 06:02:22;;;;;;;11.93;5.55;;;;;;;;;;5016047;28;20046;-60
2023/01/04 06:04:48;;;;;;;11.43;5.32;;;;;;;;;;5026709;28;20048;-61
2023/01/04 06:07:13;;;;;;;11.47;5.43;;;;;;;;;;5019443;28;20025;-60
2023/01/04 06:09:39;;;;;;;13.43;5.78;;;;;;;;;;5024148;28;20991;-60
2023/01/04 06:12:05;;;;;;;10.52;5.10;;;;;;;;;;5020655;28;20107;-61
2023/01/04 06:55:32;;;;;;;12.05;5.65;;;;;;;;;;5063434;22;20048;-58
2023/01/04 06:57:57;;;;;;;13.00;6.23;;;;;;;;;;5000063;28;20038;-56
2023/01/04 07:00:23;;;;;;;13.90;6.37;;;;;;;;;;5010277;28;20894;-57
2023/01/04 07:02:48;;;;;;;13.15;6.07;;;;;;;;;;5025387;28;20075;-56
2023/01/04 07:05:13;;;;;;;12.02;5.72;;;;;;;;;;5029046;28;20055;-56
2023/01/04 07:07:38;;;;;;;12.80;6.27;;;;;;;;;;5029834;28;20390;-53
2023/01/04 07:10:04;;;;;;;12.65;5.72;;;;;;;;;;5030196;28;20031;-54
2023/01/04 07:12:29;;;;;;;13.50;5.85;;;;;;;;;;5038067;28;20094;-55
2023/01/04 07:14:54;;;;;;;16.40;6.67;;;;;;;;;;5039517;28;20018;-53
2023/01/04 07:17:19;;;;;;;11.23;5.53;;;;;;;;;;5033139;28;20041;-52
2023/01/04 07:19:44;;;;;;;12.10;5.73;;;;;;;;;;5039309;28;20449;-52
2023/01/04 07:22:10;;;;;;;11.57;5.20;;;;;;;;;;5036057;28;20026;-54
2023/01/04 07:24:35;;;;;;;9.80;5.20;;;;;;;;;;5024301;28;20477;-53
2023/01/04 07:27:00;;;;;;;10.75;5.40;;;;;;;;;;5030236;28;20025;-55
2023/01/04 07:29:25;;;;;;;10.95;5.05;;;;;;;;;;5032220;28;20025;-54
2023/01/04 07:31:51;;;;;;;11.65;5.57;;;;;;;;;;5038362;28;20441;-55
2023/01/04 07:34:17;;;;;;;8.68;4.93;;;;;;;;;;5029484;28;20114;-54
2023/01/04 07:36:43;;;;;;;11.93;5.55;;;;;;;;;;5035620;28;20061;-54
2023/01/04 07:39:09;;;;;;;10.27;4.45;;;;;;;;;;5031528;28;20052;-52
2023/01/04 07:41:35;;;;;;;11.18;4.63;;;;;;;;;;5036648;28;20060;-57
2023/01/04 07:44:00;;;;;;;9.25;4.45;;;;;;;;;;5033144;28;20067;-56
2023/01/04 07:46:26;;;;;;;11.47;4.30;;;;;;;;;;5034761;28;20025;-52
2023/01/04 07:48:51;;;;;;;8.50;4.38;;;;;;;;;;5031262;28;20021;-51
2023/01/04 07:51:17;;;;;;;7.95;4.00;;;;;;;;;;5031239;28;20485;-54
2023/01/04 07:53:42;;;;;;;7.23;3.80;;;;;;;;;;5034828;28;20488;-52
2023/01/04 07:56:07;;;;;;;9.65;4.00;;;;;;;;;;5030294;28;20025;-55
2023/01/04 07:58:33;;;;;;;10.00;4.07;;;;;;;;;;5034893;28;20478;-53
2023/01/04 08:01:12;;;;;;;12.63;4.10;;;;;;;;;;5030648;28;20040;-52
2023/01/04 08:03:37;;;;;;;11.35;4.38;;;;;;;;;;5031944;28;20018;-55
2023/01/04 08:06:03;;;;;;;8.50;4.03;;;;;;;;;;5030133;28;20095;-53
2023/01/04 08:08:28;;;;;;;8.98;3.78;;;;;;;;;;5030845;28;20022;-53
2023/01/04 08:10:54;;;;;;;8.60;3.40;;;;;;;;;;5030151;28;20098;-52
2023/01/04 08:13:19;;;;;;;9.38;4.30;;;;;;;;;;5040313;28;20034;-53
2023/01/04 08:15:50;;;;;;;7.97;3.83;;;;;;;;;;5050234;28;20024;-53
2023/01/04 08:18:15;;;;;;;9.13;4.00;;;;;;;;;;5050652;28;20023;-53
2023/01/04 08:20:40;;;;;;;11.38;4.05;;;;;;;;;;5050228;28;20033;-55
2023/01/04 08:23:06;;;;;;;9.57;3.85;;;;;;;;;;5041074;28;20028;-53
2023/01/04 08:25:31;;;;;;;8.52;3.63;;;;;;;;;;5012699;28;20028;-53
2023/01/04 08:27:56;;;;;;;8.50;3.80;;;;;;;;;;5030624;28;20053;-53
2023/01/04 08:30:21;;;;;;;7.97;3.60;;;;;;;;;;5030842;28;20100;-53
2023/01/04 08:32:47;;;;;;;8.50;4.00;;;;;;;;;;5038314;28;20055;-52
2023/01/04 08:35:12;;;;;;;8.18;3.65;;;;;;;;;;5044131;28;20431;-52
2023/01/04 08:37:37;;;;;;;9.50;3.85;;;;;;;;;;5042439;28;20018;-52
2023/01/04 08:40:03;;;;;;;6.93;3.58;;;;;;;;;;5030590;28;20030;-52
2023/01/04 08:42:28;;;;;;;6.82;3.35;;;;;;;;;;5030500;28;20032;-53
2023/01/04 08:44:53;;;;;;;9.98;3.50;;;;;;;;;;5032636;28;20019;-53
2023/01/04 08:47:18;;;;;;;7.38;3.50;;;;;;;;;;5042750;28;20461;-52
2023/01/04 08:49:43;;;;;;;7.97;3.13;;;;;;;;;;5050856;28;20428;-54
2023/01/04 08:52:10;;;;;;;7.45;3.38;;;;;;;;;;5049450;28;20048;-51
2023/01/04 08:54:35;;;;;;;6.38;3.03;;;;;;;;;;5046346;28;20048;-54
2023/01/04 08:57:00;;;;;;;8.25;3.33;;;;;;;;;;5030708;28;20492;-52
2023/01/04 08:59:26;;;;;;;6.88;3.08;;;;;;;;;;5031001;28;20065;-53
2023/01/04 09:01:51;;;;;;;8.07;3.50;;;;;;;;;;5030759;28;20025;-52
2023/01/04 09:04:16;;;;;;;7.68;3.65;;;;;;;;;;5045683;28;20021;-52
2023/01/04 09:06:41;;;;;;;7.90;3.70;;;;;;;;;;5042889;28;20013;-52
2023/01/04 09:09:06;;;;;;;7.80;3.40;;;;;;;;;;5050459;28;20108;-52
2023/01/04 09:11:31;;;;;;;5.70;2.78;;;;;;;;;;5050285;28;20025;-52
2023/01/04 09:13:57;;;;;;;7.05;3.50;;;;;;;;;;5048888;28;20112;-52
2023/01/04 09:16:23;;;;;;;7.15;3.45;;;;;;;;;;5041406;28;20552;-54
2023/01/04 09:18:48;;;;;;;6.63;2.97;;;;;;;;;;5049932;28;20125;-51
2023/01/04 09:21:15;;;;;;;5.72;2.72;;;;;;;;;;5050181;28;20036;-53
2023/01/04 09:23:40;;;;;;;6.63;2.78;;;;;;;;;;5048406;28;20062;-55
2023/01/04 09:26:06;;;;;;;5.80;2.50;;;;;;;;;;5041437;28;20009;-52
2023/01/04 09:28:32;;;;;;;5.07;2.28;;;;;;;;;;5050128;28;20017;-52
2023/01/04 09:30:57;;;;;;;6.00;2.00;;;;;;;;;;5049995;28;20082;-52
2023/01/04 09:33:22;;;;;;;5.90;2.10;;;;;;;;;;5048803;28;20039;-52
2023/01/04 09:35:47;;;;;;;5.72;2.00;;;;;;;;;;5034897;28;20385;-54
2023/01/04 09:38:12;;;;;;;4.65;1.30;;;;;;;;;;5030165;28;20014;-51
2023/01/04 09:40:49;;;;;;;4.90;1.40;;;;;;;;;;5030007;28;20049;-53
2023/01/04 09:43:17;;;;;;;5.18;1.30;;;;;;;;;;5034747;28;20358;-53
2023/01/04 09:45:43;;;;;;;5.88;1.40;;;;;;;;;;5042647;28;20028;-53
2023/01/04 09:48:11;;;;;;;8.23;1.90;;;;;;;;;;5053490;28;20060;-54
2023/01/04 09:50:44;;;;;;;4.32;1.65;;;;;;;;;;5053576;28;20024;-54
2023/01/04 09:53:21;;;;;;;6.50;1.77;;;;;;;;;;5051870;28;20108;-53
2023/01/04 09:55:49;;;;;;;3.70;0.80;;;;;;;;;;5043612;28;20111;-53
2023/01/04 09:58:33;;;;;;;4.32;1.20;;;;;;;;;;5033170;28;20474;-53
2023/01/04 10:01:00;;;;;;;4.43;1.10;;;;;;;;;;5033475;28;20030;-53
2023/01/04 10:03:33;;;;;;;3.95;0.90;;;;;;;;;;5039348;28;20020;-55
2023/01/04 10:05:59;;;;;;;3.95;0.80;;;;;;;;;;5044130;28;20013;-52
2023/01/04 10:08:24;;;;;;;3.13;0.90;;;;;;;;;;5052789;28;20090;-52
2023/01/04 10:10:56;;;;;;;3.17;0.77;;;;;;;;;;5050618;28;20016;-53
2023/01/04 10:13:30;;;;;;;4.90;1.70;;;;;;;;;;5048233;28;20032;-52
2023/01/04 10:16:08;;;;;;;4.45;1.60;;;;;;;;;;5047148;28;20024;-52
2023/01/04 10:18:46;;;;;;;4.63;1.50;;;;;;;;;;5033278;28;20458;-52
2023/01/04 10:21:17;;;;;;;6.70;1.75;;;;;;;;;;5044024;28;20474;-52
2023/01/04 10:23:50;;;;;;;4.43;1.80;;;;;;;;;;5052794;28;20045;-53
2023/01/04 10:26:19;;;;;;;5.95;1.90;;;;;;;;;;5052160;28;20035;-52
2023/01/04 10:28:52;;;;;;;5.35;2.00;;;;;;;;;;5052411;28;20091;-55
2023/01/04 10:31:17;;;;;;;4.90;1.63;;;;;;;;;;5043368;28;20028;-55
2023/01/04 10:33:46;;;;;;;4.80;1.80;;;;;;;;;;5050444;28;20090;-52
2023/01/04 10:36:32;;;;;;;4.53;1.55;;;;;;;;;;5052478;28;20047;-51
2023/01/04 10:39:00;;;;;;;4.53;1.55;;;;;;;;;;5051379;28;20028;-54
2023/01/04 10:41:26;;;;;;;6.03;2.05;;;;;;;;;;5044066;28;20037;-53
2023/01/04 10:44:01;;;;;;;5.78;1.73;;;;;;;;;;5052103;28;20449;-53
2023/01/04 10:46:33;;;;;;;5.88;2.10;;;;;;;;;;5051862;28;20108;-52
2023/01/04 10:49:21;;;;;;;6.32;2.20;;;;;;;;;;5049719;28;20021;-55
2023/01/04 10:51:56;;;;;;;4.05;0.80;;;;;;;;;;5031894;28;20026;-52
2023/01/04 10:54:27;;;;;;;3.30;0.80;;;;;;;;;;5031711;28;20493;-54
2023/01/04 10:56:59;;;;;;;2.25;0.50;;;;;;;;;;5031369;28;20029;-52
2023/01/04 10:59:33;;;;;;;2.33;0.40;;;;;;;;;;5034982;28;20070;-53
2023/01/04 11:02:18;;;;;;;2.53;0.50;;;;;;;;;;5043942;28;20040;-52
2023/01/04 11:04:46;;;;;;;2.35;0.40;;;;;;;;;;5051715;28;20025;-59
2023/01/04 11:07:15;;;;;;;1.42;0.43;;;;;;;;;;5051576;28;20024;-52
2023/01/04 11:09:47;;;;;;;2.10;0.60;;;;;;;;;;5050669;28;20097;-53
2023/01/04 11:12:14;;;;;;;2.25;0.47;;;;;;;;;;5043496;28;20016;-53
2023/01/04 11:14:39;;;;;;;1.92;0.50;;;;;;;;;;5051785;28;20093;-53
2023/01/04 11:17:06;;;;;;;1.63;0.53;;;;;;;;;;5051614;28;20095;-54
2023/01/04 11:19:31;;;;;;;1.50;0.50;;;;;;;;;;5049906;28;20028;-52
2023/01/04 11:21:59;;;;;;;2.63;0.57;;;;;;;;;;5040004;28;20013;-53
2023/01/04 11:24:28;;;;;;;3.58;0.60;;;;;;;;;;5030949;28;20021;-53
2023/01/04 11:26:54;;;;;;;1.48;0.47;;;;;;;;;;5031360;28;20045;-52
2023/01/04 11:29:39;;;;;;;4.20;0.77;;;;;;;;;;5031222;28;20048;-53
2023/01/04 11:32:09;;;;;;;1.80;0.60;;;;;;;;;;5042798;28;20025;-53
2023/01/04 11:34:42;;;;;;;2.45;0.60;;;;;;;;;;5011406;28;20398;-54
2023/01/04 11:37:22;;;;;;;2.80;0.80;;;;;;;;;;5011206;28;20053;-54
2023/01/04 11:39:47;;;;;;;3.33;0.80;;;;;;;;;;5020802;28;20547;-55
2023/01/04 11:42:18;;;;;;;2.17;0.60;;;;;;;;;;5047808;28;20060;-53
2023/01/04 11:44:55;;;;;;;3.17;0.70;;;;;;;;;;5043321;28;20021;-55
2023/01/04 11:47:23;;;;;;;3.47;0.80;;;;;;;;;;5047681;28;20033;-53
2023/01/04 11:49:48;;;;;;;2.42;0.70;;;;;;;;;;5037559;28;20029;-53
2023/01/04 11:52:26;;;;;;;2.50;0.73;;;;;;;;;;5038558;28;20022;-54
2023/01/04 11:54:51;;;;;;;3.42;0.70;;;;;;;;;;5034273;28;20456;-55
2023/01/04 11:57:17;;;;;;;2.40;0.77;;;;;;;;;;5048579;28;20021;-53
2023/01/04 11:59:42;;;;;;;2.10;0.80;;;;;;;;;;5051011;28;20116;-53
2023/01/04 12:02:17;;;;;;;2.88;0.80;;;;;;;;;;5050957;28;20143;-54
2023/01/04 12:04:43;;;;;;;2.03;0.70;;;;;;;;;;5041124;28;20389;-53
2023/01/04 12:07:14;;;;;;;2.93;0.70;;;;;;;;;;5047284;28;20024;-53
2023/01/04 12:09:39;;;;;;;2.97;0.70;;;;;;;;;;5050080;28;20436;-53
2023/01/04 12:12:04;;;;;;;2.45;0.70;;;;;;;;;;5050620;28;20424;-55
2023/01/04 12:14:36;;;;;;;2.23;0.60;;;;;;;;;;5045460;28;20036;-53
2023/01/04 12:17:04;;;;;;;3.83;0.80;;;;;;;;;;5046656;28;20459;-52
2023/01/04 12:19:30;;;;;;;2.25;0.70;;;;;;;;;;5050571;28;20072;-54
2023/01/04 12:21:57;;;;;;;3.00;0.77;;;;;;;;;;5044986;28;20494;-53
2023/01/04 12:24:24;;;;;;;3.05;0.90;;;;;;;;;;5042209;28;20021;-52
2023/01/04 12:26:50;;;;;;;3.13;0.88;;;;;;;;;;5049484;28;20024;-55
2023/01/04 12:29:21;;;;;;;2.30;0.80;;;;;;;;;;5042589;28;20377;-54
2023/01/04 12:31:47;;;;;;;3.10;0.80;;;;;;;;;;5038679;28;20431;-53
2023/01/04 12:34:12;;;;;;;2.55;0.65;;;;;;;;;;5041591;28;20070;-53
2023/01/04 12:36:37;;;;;;;2.28;0.70;;;;;;;;;;5050244;28;20021;-52
2023/01/04 12:39:04;;;;;;;2.95;0.60;;;;;;;;;;5050277;28;20020;-55
2023/01/04 12:41:32;;;;;;;3.85;1.40;;;;;;;;;;5050265;28;20033;-55
2023/01/04 12:43:57;;;;;;;2.33;0.70;;;;;;;;;;5038256;28;20376;-53
2023/01/04 12:49:25;;;;;;;3.75;0.80;;;;;;;;;;5042410;28;20076;-57
2023/01/04 12:52:10;;;;;;;3.60;0.60;;;;;;;;;;5049334;28;20107;-54
2023/01/04 12:54:45;;;;;;;3.00;0.82;;;;;;;;;;5030705;28;20017;-52
2023/01/04 12:57:22;;;;;;;2.95;0.90;;;;;;;;;;5042523;28;20032;-53
2023/01/04 12:59:53;;;;;;;1.95;0.60;;;;;;;;;;5043328;28;20022;-52
2023/01/04 13:02:23;;;;;;;4.35;1.00;;;;;;;;;;5048915;28;20029;-54
2023/01/04 13:04:49;;;;;;;3.95;1.10;;;;;;;;;;5050092;28;20024;-55
2023/01/04 13:07:19;;;;;;;3.08;0.80;;;;;;;;;;5043902;28;20040;-54
2023/01/04 13:09:49;;;;;;;2.22;0.60;;;;;;;;;;5035836;28;20037;-54
2023/01/04 13:12:24;;;;;;;4.05;0.73;;;;;;;;;;5111790;22;20048;-67
2023/01/04 13:14:52;;;;;;;2.75;0.80;;;;;;;;;;4996610;28;20065;-65
2023/01/04 13:17:22;;;;;;;1.60;0.57;;;;;;;;;;4993840;28;20018;-67
2023/01/04 13:19:48;;;;;;;2.08;0.73;;;;;;;;;;4989369;28;20035;-67
2023/01/04 13:22:25;;;;;;;2.08;0.80;;;;;;;;;;5008151;28;20033;-65
2023/01/04 13:24:50;;;;;;;2.47;0.82;;;;;;;;;;5009158;28;20102;-67
2023/01/04 13:27:20;;;;;;;2.15;0.65;;;;;;;;;;5014892;28;20049;-63
2023/01/04 13:29:45;;;;;;;1.95;0.70;;;;;;;;;;5014840;28;20021;-62
2023/01/04 13:32:13;;;;;;;2.42;0.68;;;;;;;;;;5012786;28;20375;-63
2023/01/04 13:34:42;;;;;;;4.05;0.73;;;;;;;;;;5006760;28;20093;-62
2023/01/04 13:37:16;;;;;;;3.38;0.90;;;;;;;;;;5014028;28;20076;-65
2023/01/04 13:39:41;;;;;;;2.47;0.70;;;;;;;;;;5013937;28;20026;-62
2023/01/04 13:42:13;;;;;;;1.73;0.47;;;;;;;;;;5013753;28;20033;-62
2023/01/04 13:45:03;;;;;;;1.83;0.57;;;;;;;;;;5015151;28;20018;-62
2023/01/04 13:47:32;;;;;;;2.55;0.60;;;;;;;;;;5014927;28;20490;-64
2023/01/04 13:49:57;;;;;;;1.98;0.63;;;;;;;;;;5016492;28;20061;-62
2023/01/04 13:52:23;;;;;;;1.85;0.60;;;;;;;;;;5020264;28;20022;-61
2023/01/04 13:54:49;;;;;;;3.08;0.70;;;;;;;;;;5017931;28;20022;-62
2023/01/04 13:57:19;;;;;;;1.48;0.52;;;;;;;;;;5013221;28;20160;-63
2023/01/04 13:59:44;;;;;;;1.92;0.70;;;;;;;;;;5013139;28;20022;-63
2023/01/04 14:02:15;;;;;;;4.37;0.70;;;;;;;;;;5013674;28;20037;-63
2023/01/04 14:04:41;;;;;;;1.70;0.60;;;;;;;;;;5003377;28;20026;-63
2023/01/04 14:07:07;;;;;;;2.88;0.50;;;;;;;;;;5001754;28;20022;-63
2023/01/04 14:09:41;;;;;;;1.60;0.60;;;;;;;;;;5000331;28;20378;-62
2023/01/04 14:12:11;;;;;;;2.08;0.60;;;;;;;;;;5006939;28;20033;-62
2023/01/04 14:14:57;;;;;;;1.75;0.60;;;;;;;;;;5004428;28;20014;-62
2023/01/04 14:17:31;;;;;;;1.48;0.57;;;;;;;;;;5012807;28;20473;-62
2023/01/04 14:20:03;;;;;;;2.65;0.68;;;;;;;;;;4997537;28;20037;-63
2023/01/04 14:22:29;;;;;;;;;;;;;;;;;;5008929;28;20022;-62
2023/01/04 14:24:55;;;;;;;2.23;0.50;;;;;;;;;;5003547;28;20318;-62
2023/01/04 14:27:37;;;;;;;2.08;0.57;;;;;;;;;;4973807;28;20024;-61
2023/01/04 14:30:17;;;;;;;1.98;0.50;;;;;;;;;;5000508;28;20031;-62
2023/01/04 14:32:59;;;;;;;1.40;0.43;;;;;;;;;;4973111;28;20043;-64
2023/01/04 14:35:24;;;;;;;1.83;0.50;;;;;;;;;;4991729;28;20034;-63
2023/01/04 14:37:50;;;;;;;3.20;0.65;;;;;;;;;;5009370;28;20152;-63
2023/01/04 14:40:26;;;;;;;1.90;0.60;;;;;;;;;;5002801;28;20088;-62
2023/01/04 14:42:51;;;;;;;2.88;0.60;;;;;;;;;;4994906;28;20057;-63
2023/01/04 14:45:16;;;;;;;2.28;0.70;;;;;;;;;;5002705;28;20475;-63
2023/01/04 14:47:41;;;;;;;1.40;0.40;;;;;;;;;;4992505;28;20451;-64
2023/01/04 14:50:07;;;;;;;1.50;0.50;;;;;;;;;;4992668;28;20027;-63
2023/01/04 14:52:32;;;;;;;2.42;0.60;;;;;;;;;;4992660;28;20117;-63
2023/01/04 14:54:58;;;;;;;1.92;0.68;;;;;;;;;;4992533;28;20026;-62
2023/01/04 14:57:23;;;;;;;2.95;0.50;;;;;;;;;;4992192;28;20026;-62
2023/01/04 14:59:48;;;;;;;1.30;0.50;;;;;;;;;;4992088;28;20076;-62
2023/01/04 15:02:13;;;;;;;2.00;0.70;;;;;;;;;;4991461;28;20030;-63
2023/01/04 15:04:38;;;;;;;2.25;0.65;;;;;;;;;;4996472;28;20029;-62
2023/01/04 15:07:03;;;;;;;1.65;0.70;;;;;;;;;;5007184;28;20403;-62
2023/01/04 15:09:29;;;;;;;2.20;0.70;;;;;;;;;;4997217;28;20034;-65
2023/01/04 15:11:54;;;;;;;1.83;0.53;;;;;;;;;;5001705;28;20390;-62
2023/01/04 15:14:19;;;;;;;1.38;0.60;;;;;;;;;;4992494;28;20886;-64
2023/01/04 15:16:45;;;;;;;2.80;0.60;;;;;;;;;;5005824;28;20382;-63
2023/01/04 15:19:10;;;;;;;1.45;0.47;;;;;;;;;;5002579;28;20022;-62
2023/01/04 15:21:35;;;;;;;1.90;0.60;;;;;;;;;;4991835;28;20026;-62
2023/01/04 15:24:00;;;;;;;1.70;0.50;;;;;;;;;;4992543;28;20018;-63
2023/01/04 15:26:26;;;;;;;2.50;0.70;;;;;;;;;;4993371;28;20114;-62
2023/01/04 15:28:51;;;;;;;3.03;0.80;;;;;;;;;;5011583;28;20682;-62
2023/01/04 15:31:16;;;;;;;1.83;0.55;;;;;;;;;;5003956;28;20025;-64
2023/01/04 15:33:41;;;;;;;2.97;0.73;;;;;;;;;;4991530;28;20025;-63
2023/01/04 15:36:11;;;;;;;2.20;0.77;;;;;;;;;;4988644;28;20017;-63
2023/01/04 15:38:36;;;;;;;2.08;0.50;;;;;;;;;;4990646;28;20022;-62
2023/01/04 15:41:09;;;;;;;2.70;0.60;;;;;;;;;;4992965;28;20140;-63
2023/01/04 15:43:35;;;;;;;2.35;0.70;;;;;;;;;;4990859;28;20497;-62
2023/01/04 15:46:01;;;;;;;2.78;0.68;;;;;;;;;;4991278;28;20065;-63
2023/01/04 15:48:26;;;;;;;3.50;0.90;;;;;;;;;;4988064;28;20022;-62
2023/01/04 15:50:51;;;;;;;2.70;0.60;;;;;;;;;;4997049;28;20018;-63
2023/01/04 15:53:16;;;;;;;3.00;0.60;;;;;;;;;;4989272;28;20022;-63
2023/01/04 15:55:41;;;;;;;2.77;0.60;;;;;;;;;;4994418;28;20025;-63
2023/01/04 15:58:07;;;;;;;3.27;0.60;;;;;;;;;;5001894;28;20026;-63
2023/01/04 16:00:32;;;;;;;2.40;0.73;;;;;;;;;;4992995;28;20038;-62
2023/01/04 16:02:57;;;;;;;2.40;0.90;;;;;;;;;;4988589;28;20407;-62
2023/01/04 16:05:22;;;;;;;2.43;0.60;;;;;;;;;;4995517;28;20490;-63
2023/01/04 16:07:47;;;;;;;2.00;0.70;;;;;;;;;;5005330;28;20026;-63
2023/01/04 16:10:13;;;;;;;2.17;0.80;;;;;;;;;;5003621;28;20034;-64
2023/01/04 16:12:41;;;;;;;2.63;0.60;;;;;;;;;;4998389;28;20037;-63
2023/01/04 16:15:07;;;;;;;2.03;0.70;;;;;;;;;;4996295;28;20032;-64